createdAt,value
2022-08-07T00:00:41.658Z,94438.09
2022-08-07T00:01:44.040Z,94387.09
2022-08-07T00:02:56.959Z,94418.91
2022-08-07T00:03:55.031Z,94413.53
2022-08-07T00:04:52.066Z,94448.69
2022-08-07T00:05:52.728Z,94230.13
2022-08-07T00:06:51.732Z,94438.88
2022-08-07T00:07:50.589Z,94441.84
2022-08-07T00:08:57.147Z,94437.56
2022-08-07T00:10:25.506Z,94443.03
2022-08-07T00:11:29.899Z,94441.94
2022-08-07T00:12:29.812Z,94442.53
2022-08-07T00:13:30.557Z,94421.56
2022-08-07T00:14:31.495Z,94448.00
2022-08-07T00:15:38.253Z,94412.53
2022-08-07T00:16:43.401Z,94429.78
2022-08-07T00:17:42.099Z,94429.59
2022-08-07T00:18:39.289Z,94385.31
2022-08-07T00:20:01.624Z,94404.31
2022-08-07T00:20:57.616Z,94426.25
2022-08-07T00:22:02.365Z,94363.66
2022-08-07T00:23:00.223Z,94451.47
2022-08-07T00:23:56.944Z,94409.53
2022-08-07T00:24:53.886Z,94388.88
2022-08-07T00:25:52.132Z,94407.94
2022-08-07T00:27:06.185Z,94443.31
2022-08-07T00:28:04.305Z,94428.63
2022-08-07T00:29:01.677Z,94442.72
2022-08-07T00:29:59.607Z,94458.81
2022-08-07T00:30:56.454Z,94384.13
2022-08-07T00:31:54.642Z,94448.88
2022-08-07T00:32:52.094Z,94451.25
2022-08-07T00:33:48.957Z,94453.75
2022-08-07T00:34:49.246Z,94456.03
2022-08-07T00:35:49.460Z,94457.00
2022-08-07T00:36:46.551Z,94455.84
2022-08-07T00:37:48.143Z,94307.72
2022-08-07T00:38:45.255Z,94464.41
2022-08-07T00:39:45.022Z,94457.44
2022-08-07T00:40:44.385Z,94452.09
2022-08-07T00:41:53.871Z,94449.47
2022-08-07T00:42:59.368Z,94454.47
2022-08-07T00:44:01.534Z,94336.28
2022-08-07T00:44:59.614Z,94432.00
2022-08-07T00:45:56.545Z,94361.19
2022-08-07T00:46:53.854Z,94450.50
2022-08-07T00:48:07.810Z,94456.25
2022-08-07T00:49:09.542Z,94451.06
2022-08-07T00:50:46.237Z,94462.19
2022-08-07T00:51:56.475Z,94462.28
2022-08-07T00:52:54.754Z,94455.03
2022-08-07T00:53:55.843Z,94463.25
2022-08-07T00:54:53.692Z,94434.94
2022-08-07T00:56:02.647Z,94432.66
2022-08-07T00:57:00.544Z,94457.88
2022-08-07T00:57:57.846Z,94427.03
2022-08-07T00:58:54.725Z,94317.69
2022-08-07T00:59:53.265Z,94450.84
2022-08-07T01:00:53.984Z,94373.41
2022-08-07T01:01:51.224Z,94410.63
2022-08-07T01:02:54.759Z,94459.22
2022-08-07T01:03:56.861Z,94427.00
2022-08-07T01:04:58.839Z,94445.97
2022-08-07T01:05:56.656Z,94467.78
2022-08-07T01:06:53.846Z,94465.56
2022-08-07T01:07:50.694Z,94408.94
2022-08-07T01:08:53.311Z,94457.81
2022-08-07T01:10:06.016Z,94446.97
2022-08-07T01:12:04.608Z,94428.78
2022-08-07T01:12:29.618Z,94422.44
2022-08-07T01:13:27.395Z,94437.22
2022-08-07T01:14:31.896Z,94476.44
2022-08-07T01:16:01.285Z,94473.78
2022-08-07T01:16:52.307Z,94474.38
2022-08-07T01:17:49.802Z,94337.38
2022-08-07T01:18:46.652Z,94462.53
2022-08-07T01:19:52.349Z,94464.00
2022-08-07T01:21:22.397Z,94471.66
2022-08-07T01:22:29.354Z,94387.97
2022-08-07T01:23:36.418Z,94481.19
2022-08-07T01:24:37.682Z,94457.41
2022-08-07T01:25:55.146Z,94472.47
2022-08-07T01:26:53.807Z,94462.84
2022-08-07T01:27:51.606Z,94367.19
2022-08-07T01:28:51.548Z,94471.50
2022-08-07T01:29:50.628Z,94473.69
2022-08-07T01:30:51.219Z,94486.41
2022-08-07T01:31:50.025Z,94484.88
2022-08-07T01:32:47.302Z,94411.88
2022-08-07T01:33:55.298Z,94446.34
2022-08-07T01:34:53.918Z,94452.81
2022-08-07T01:35:53.844Z,94452.81
2022-08-07T01:36:57.732Z,94466.41
2022-08-07T01:37:55.411Z,94467.91
2022-08-07T01:38:53.115Z,94450.63
2022-08-07T01:39:51.145Z,94487.94
2022-08-07T01:40:51.119Z,94443.66
2022-08-07T01:42:07.493Z,94476.03
2022-08-07T01:43:08.007Z,94485.78
2022-08-07T01:44:05.514Z,94409.72
2022-08-07T01:45:15.681Z,94476.56
2022-08-07T01:46:17.086Z,94376.97
2022-08-07T01:48:18.114Z,94417.84
2022-08-07T01:48:35.960Z,94479.13
2022-08-07T01:49:38.002Z,94471.09
2022-08-07T01:50:43.290Z,94494.59
2022-08-07T01:52:03.936Z,94504.72
2022-08-07T01:53:08.787Z,94516.44
2022-08-07T01:54:13.053Z,94457.19
2022-08-07T01:55:37.315Z,94518.81
2022-08-07T01:56:42.738Z,94539.69
2022-08-07T01:58:01.285Z,94535.09
2022-08-07T01:59:18.931Z,94503.28
2022-08-07T02:00:16.502Z,94523.72
2022-08-07T02:01:59.942Z,94565.47
2022-08-07T02:03:19.248Z,94565.09
2022-08-07T02:04:28.740Z,94497.22
2022-08-07T02:05:43.073Z,94536.19
2022-08-07T02:06:46.187Z,94508.59
2022-08-07T02:07:52.357Z,94529.00
2022-08-07T02:08:54.370Z,94444.06
2022-08-07T02:09:58.712Z,94558.75
2022-08-07T02:10:59.601Z,94568.50
2022-08-07T02:12:05.081Z,94580.41
2022-08-07T02:13:04.633Z,94572.56
2022-08-07T02:14:07.918Z,94578.91
2022-08-07T02:15:07.037Z,94585.09
2022-08-07T02:16:07.440Z,94585.66
2022-08-07T02:17:06.150Z,94537.06
2022-08-07T02:18:04.482Z,94531.88
2022-08-07T02:20:03.625Z,94561.88
2022-08-07T02:20:25.866Z,94570.22
2022-08-07T02:21:26.315Z,94437.88
2022-08-07T02:22:45.086Z,94543.44
2022-08-07T02:23:45.093Z,94473.09
2022-08-07T02:24:47.177Z,94514.19
2022-08-07T02:25:47.359Z,94537.22
2022-08-07T02:27:05.651Z,94531.38
2022-08-07T02:28:04.120Z,94528.97
2022-08-07T02:29:13.738Z,94517.00
2022-08-07T02:30:12.393Z,94533.13
2022-08-07T02:31:28.080Z,94522.56
2022-08-07T02:32:29.968Z,94518.25
2022-08-07T02:33:32.789Z,94513.84
2022-08-07T02:34:34.549Z,94476.84
2022-08-07T02:36:29.816Z,94496.41
2022-08-07T02:36:52.604Z,94462.16
2022-08-07T02:37:52.008Z,94454.00
2022-08-07T02:38:57.002Z,94495.19
2022-08-07T02:40:02.175Z,94510.44
2022-08-07T02:41:10.696Z,94484.50
2022-08-07T02:42:10.249Z,94459.50
2022-08-07T02:43:12.347Z,94418.06
2022-08-07T02:44:11.835Z,94503.78
2022-08-07T02:46:00.669Z,94500.56
2022-08-07T02:46:36.858Z,94505.31
2022-08-07T02:47:45.070Z,94393.88
2022-08-07T02:48:54.634Z,94455.81
2022-08-07T02:49:58.518Z,94466.56
2022-08-07T02:51:03.196Z,94440.84
2022-08-07T02:52:04.721Z,94483.03
2022-08-07T02:53:11.714Z,94502.63
2022-08-07T02:54:13.203Z,94520.69
2022-08-07T02:55:28.107Z,94480.03
2022-08-07T02:56:42.295Z,94515.69
2022-08-07T02:57:41.161Z,94516.78
2022-08-07T02:58:47.095Z,94494.88
2022-08-07T02:59:54.847Z,94505.53
2022-08-07T03:00:59.947Z,94516.78
2022-08-07T03:02:02.067Z,94495.59
2022-08-07T03:03:05.960Z,94475.91
2022-08-07T03:04:07.847Z,94523.94
2022-08-07T03:05:11.789Z,94473.56
2022-08-07T03:06:26.261Z,94498.06
2022-08-07T03:08:05.225Z,94505.00
2022-08-07T03:08:49.757Z,94484.50
2022-08-07T03:09:52.655Z,94404.94
2022-08-07T03:10:50.495Z,94506.34
2022-08-07T03:11:52.468Z,94426.13
2022-08-07T03:12:55.474Z,94479.31
2022-08-07T03:13:57.484Z,94515.34
2022-08-07T03:14:56.380Z,94518.81
2022-08-07T03:15:58.316Z,94522.41
2022-08-07T03:16:57.188Z,94513.41
2022-08-07T03:17:54.420Z,94512.38
2022-08-07T03:18:52.686Z,94496.47
2022-08-07T03:19:55.079Z,94513.69
2022-08-07T03:20:53.162Z,94508.91
2022-08-07T03:21:51.626Z,94525.91
2022-08-07T03:22:51.136Z,94518.53
2022-08-07T03:24:20.528Z,94507.88
2022-08-07T03:25:10.427Z,94515.47
2022-08-07T03:26:10.289Z,94512.03
2022-08-07T03:27:30.521Z,94362.53
2022-08-07T03:28:40.789Z,94516.00
2022-08-07T03:29:50.520Z,94511.38
2022-08-07T03:31:11.350Z,94463.00
2022-08-07T03:32:13.601Z,94494.28
2022-08-07T03:33:11.689Z,94505.66
2022-08-07T03:34:18.619Z,94496.63
2022-08-07T03:35:26.392Z,94511.94
2022-08-07T03:36:26.603Z,94471.22
2022-08-07T03:37:27.749Z,94406.38
2022-08-07T03:38:29.850Z,94507.81
2022-08-07T03:39:59.145Z,94440.97
2022-08-07T03:40:53.942Z,94490.47
2022-08-07T03:41:54.966Z,94473.97
2022-08-07T03:42:52.598Z,94537.22
2022-08-07T03:43:57.311Z,94494.81
2022-08-07T03:44:57.839Z,94506.91
2022-08-07T03:45:55.825Z,94492.69
2022-08-07T03:47:12.995Z,94507.34
2022-08-07T03:48:11.468Z,94511.69
2022-08-07T03:49:09.955Z,94516.09
2022-08-07T03:50:08.095Z,94482.41
2022-08-07T03:51:10.252Z,94495.22
2022-08-07T03:52:22.373Z,94497.47
2022-08-07T03:53:19.899Z,94510.69
2022-08-07T03:54:55.049Z,94508.50
2022-08-07T03:56:04.154Z,94500.41
2022-08-07T03:57:07.419Z,94528.94
2022-08-07T03:58:33.298Z,94362.59
2022-08-07T03:59:22.454Z,94515.84
2022-08-07T04:00:21.091Z,94557.53
2022-08-07T04:01:30.213Z,94531.56
2022-08-07T04:02:29.127Z,94535.63
2022-08-07T04:03:26.196Z,94505.44
2022-08-07T04:04:23.575Z,94522.59
2022-08-07T04:05:23.974Z,94511.63
2022-08-07T04:06:36.336Z,94520.88
2022-08-07T04:07:36.308Z,94528.34
2022-08-07T04:08:41.696Z,94524.00
2022-08-07T04:09:45.405Z,94509.69
2022-08-07T04:10:54.275Z,94494.19
2022-08-07T04:12:27.436Z,94534.53
2022-08-07T04:13:27.734Z,94417.13
2022-08-07T04:14:37.333Z,94534.94
2022-08-07T04:15:35.312Z,94513.41
2022-08-07T04:16:32.742Z,94524.19
2022-08-07T04:18:32.000Z,94525.97
2022-08-07T04:18:58.977Z,94487.38
2022-08-07T04:19:58.969Z,94484.81
2022-08-07T04:20:55.982Z,94496.03
2022-08-07T04:22:04.851Z,94540.59
2022-08-07T04:23:06.614Z,94426.97
2022-08-07T04:24:07.860Z,94515.44
2022-08-07T04:25:08.681Z,94536.22
2022-08-07T04:26:09.016Z,94532.34
2022-08-07T04:27:20.778Z,94506.09
2022-08-07T04:28:22.679Z,94539.09
2022-08-07T04:29:19.555Z,94517.13
2022-08-07T04:30:35.671Z,94558.88
2022-08-07T04:32:03.026Z,94421.13
2022-08-07T04:32:58.646Z,94543.16
2022-08-07T04:33:56.686Z,94533.84
2022-08-07T04:34:56.737Z,94563.50
2022-08-07T04:35:54.393Z,94551.03
2022-08-07T04:36:51.659Z,94555.16
2022-08-07T04:38:03.313Z,94552.41
2022-08-07T04:39:05.376Z,94560.75
2022-08-07T04:40:07.761Z,94490.72
2022-08-07T04:41:04.904Z,94555.56
2022-08-07T04:42:03.896Z,94560.94
2022-08-07T04:43:01.209Z,94561.03
2022-08-07T04:44:11.994Z,94432.94
2022-08-07T04:45:18.642Z,94565.53
2022-08-07T04:47:04.249Z,94556.19
2022-08-07T04:48:23.662Z,94546.13
2022-08-07T04:49:37.711Z,94554.28
2022-08-07T04:50:52.804Z,94554.59
2022-08-07T04:52:11.358Z,94549.53
2022-08-07T04:53:27.947Z,94551.19
2022-08-07T04:55:14.987Z,94555.78
2022-08-07T04:58:15.615Z,94557.84
2022-08-07T04:58:33.815Z,94560.16
2022-08-07T05:00:11.340Z,94540.47
2022-08-07T05:01:18.301Z,94515.03
2022-08-07T05:02:28.001Z,94532.75
2022-08-07T05:04:06.975Z,94574.88
2022-08-07T05:05:53.334Z,94573.91
2022-08-07T05:06:43.506Z,94533.34
2022-08-07T05:07:58.356Z,94556.38
2022-08-07T05:09:03.153Z,94565.72
2022-08-07T05:10:17.713Z,94547.03
2022-08-07T05:11:24.537Z,94573.59
2022-08-07T05:12:30.430Z,94552.81
2022-08-07T05:14:55.125Z,94584.91
2022-08-07T05:16:04.585Z,94575.22
2022-08-07T05:17:11.976Z,94533.66
2022-08-07T05:18:20.122Z,94568.16
2022-08-07T05:19:32.604Z,94531.63
2022-08-07T05:20:46.544Z,94533.53
2022-08-07T05:22:00.133Z,94569.53
2022-08-07T05:23:06.960Z,94548.91
2022-08-07T05:24:17.770Z,94565.97
2022-08-07T05:25:36.631Z,94590.53
2022-08-07T05:26:38.811Z,94560.84
2022-08-07T05:28:15.914Z,94580.75
2022-08-07T05:28:59.656Z,94470.59
2022-08-07T05:30:02.729Z,94555.19
2022-08-07T05:31:01.481Z,94580.25
2022-08-07T05:32:03.459Z,94597.69
2022-08-07T05:33:03.798Z,94576.72
2022-08-07T05:34:05.438Z,94582.94
2022-08-07T05:35:10.225Z,94577.19
2022-08-07T05:36:12.209Z,94583.19
2022-08-07T05:37:25.475Z,94568.78
2022-08-07T05:39:01.498Z,94591.09
2022-08-07T05:40:14.398Z,94552.56
2022-08-07T05:41:12.018Z,94559.63
2022-08-07T05:42:14.076Z,94561.97
2022-08-07T05:43:11.573Z,94601.22
2022-08-07T05:44:12.563Z,94590.47
2022-08-07T05:45:25.987Z,94482.50
2022-08-07T05:46:29.508Z,94606.06
2022-08-07T05:47:37.849Z,94601.91
2022-08-07T05:48:57.999Z,94590.91
2022-08-07T05:49:58.715Z,94494.28
2022-08-07T05:50:59.577Z,94600.53
2022-08-07T05:51:57.811Z,94593.00
2022-08-07T05:52:54.675Z,94622.97
2022-08-07T05:54:12.381Z,94612.47
2022-08-07T05:55:10.780Z,94617.41
2022-08-07T05:56:09.998Z,94613.78
2022-08-07T05:57:09.911Z,94626.47
2022-08-07T05:58:07.923Z,94580.41
2022-08-07T05:59:16.098Z,94595.44
2022-08-07T06:00:16.367Z,94516.06
2022-08-07T06:01:17.566Z,94586.44
2022-08-07T06:02:22.538Z,94616.53
2022-08-07T06:03:56.562Z,94621.91
2022-08-07T06:04:54.304Z,94521.06
2022-08-07T06:05:56.675Z,94630.19
2022-08-07T06:07:03.425Z,94523.44
2022-08-07T06:08:09.298Z,94606.53
2022-08-07T06:09:14.815Z,94510.69
2022-08-07T06:10:15.451Z,94628.56
2022-08-07T06:11:13.747Z,94604.53
2022-08-07T06:12:11.496Z,94611.88
2022-08-07T06:13:13.637Z,94440.88
2022-08-07T06:14:21.008Z,94606.69
2022-08-07T06:15:20.417Z,94642.75
2022-08-07T06:16:20.268Z,94641.91
2022-08-07T06:17:22.295Z,94652.81
2022-08-07T06:18:21.559Z,94640.47
2022-08-07T06:19:51.858Z,94610.56
2022-08-07T06:20:50.241Z,94627.72
2022-08-07T06:22:14.339Z,94615.34
2022-08-07T06:23:46.741Z,94636.31
2022-08-07T06:24:37.979Z,94644.69
2022-08-07T06:25:54.884Z,94599.00
2022-08-07T06:26:54.109Z,94564.72
2022-08-07T06:28:00.983Z,94651.84
2022-08-07T06:29:01.192Z,94648.03
2022-08-07T06:29:58.223Z,94626.75
2022-08-07T06:30:58.163Z,94610.25
2022-08-07T06:31:55.762Z,94641.69
2022-08-07T06:32:52.492Z,94590.25
2022-08-07T06:33:49.417Z,94524.56
2022-08-07T06:34:47.994Z,94619.47
2022-08-07T06:35:47.743Z,94643.75
2022-08-07T06:37:02.698Z,94623.13
2022-08-07T06:37:59.890Z,94527.94
2022-08-07T06:38:59.291Z,94606.94
2022-08-07T06:40:20.788Z,94636.78
2022-08-07T06:42:01.567Z,94633.09
2022-08-07T06:42:49.627Z,94634.38
2022-08-07T06:43:59.265Z,94609.66
2022-08-07T06:44:59.817Z,94519.53
2022-08-07T06:46:00.849Z,94628.63
2022-08-07T06:47:10.587Z,94623.53
2022-08-07T06:48:12.319Z,94624.03
2022-08-07T06:49:12.271Z,94627.56
2022-08-07T06:50:10.906Z,94608.34
2022-08-07T06:51:12.352Z,94567.25
2022-08-07T06:52:15.991Z,94632.94
2022-08-07T06:54:11.934Z,94596.13
2022-08-07T06:55:31.199Z,94629.22
2022-08-07T06:56:00.269Z,94615.94
2022-08-07T06:57:00.582Z,94601.75
2022-08-07T06:58:04.575Z,94607.44
2022-08-07T07:00:13.311Z,94637.09
2022-08-07T07:00:20.386Z,94620.75
2022-08-07T07:01:17.761Z,94549.47
2022-08-07T07:02:53.874Z,94625.25
2022-08-07T07:03:49.838Z,94638.91
2022-08-07T07:04:54.943Z,94620.47
2022-08-07T07:06:02.463Z,94634.81
2022-08-07T07:07:18.839Z,94612.72
2022-08-07T07:08:18.563Z,94512.16
2022-08-07T07:09:31.068Z,94632.75
2022-08-07T07:10:33.862Z,94639.69
2022-08-07T07:12:07.790Z,94628.63
2022-08-07T07:12:54.702Z,94614.25
2022-08-07T07:14:01.197Z,94641.88
2022-08-07T07:15:26.377Z,94628.22
2022-08-07T07:16:45.254Z,94632.97
2022-08-07T07:18:19.247Z,94660.13
2022-08-07T07:19:57.661Z,94509.19
2022-08-07T07:22:04.049Z,94528.91
2022-08-07T07:24:06.134Z,94640.84
2022-08-07T07:24:11.129Z,94551.19
2022-08-07T07:26:31.169Z,94634.63
2022-08-07T07:26:37.283Z,94536.31
2022-08-07T07:27:55.823Z,94614.66
2022-08-07T07:29:39.867Z,94628.94
2022-08-07T07:30:37.746Z,94619.50
2022-08-07T07:31:44.435Z,94548.09
2022-08-07T07:32:45.967Z,94616.00
2022-08-07T07:33:44.901Z,94653.00
2022-08-07T07:35:00.408Z,94632.31
2022-08-07T07:36:05.339Z,94608.69
2022-08-07T07:37:21.939Z,94647.38
2022-08-07T07:38:29.114Z,94638.09
2022-08-07T07:39:35.769Z,94635.63
2022-08-07T07:40:50.737Z,94632.53
2022-08-07T07:42:08.859Z,94526.38
2022-08-07T07:43:15.455Z,94640.66
2022-08-07T07:44:26.122Z,94601.00
2022-08-07T07:46:40.606Z,94525.75
2022-08-07T07:46:55.690Z,94641.22
2022-08-07T07:47:57.698Z,94641.88
2022-08-07T07:48:59.936Z,94624.06
2022-08-07T07:50:33.946Z,94644.00
2022-08-07T07:51:29.805Z,94624.75
2022-08-07T07:52:48.573Z,94627.50
2022-08-07T07:53:52.743Z,94631.59
2022-08-07T07:54:52.103Z,94598.69
2022-08-07T07:56:00.518Z,94648.56
2022-08-07T07:57:01.534Z,94631.59
2022-08-07T07:58:02.985Z,94614.44
2022-08-07T07:59:03.460Z,94631.56
2022-08-07T08:00:05.535Z,94637.56
2022-08-07T08:02:01.609Z,94639.22
2022-08-07T08:02:33.909Z,94564.03
2022-08-07T08:04:06.343Z,94636.78
2022-08-07T08:04:56.414Z,94505.28
2022-08-07T08:05:56.597Z,94638.72
2022-08-07T08:06:55.670Z,94565.09
2022-08-07T08:08:00.819Z,94613.28
2022-08-07T08:09:02.326Z,94601.25
2022-08-07T08:10:04.826Z,94659.81
2022-08-07T08:11:08.131Z,94649.31
2022-08-07T08:12:06.878Z,94641.88
2022-08-07T08:13:06.221Z,94660.97
2022-08-07T08:14:07.612Z,94625.81
2022-08-07T08:15:06.782Z,94636.84
2022-08-07T08:16:06.561Z,94664.00
2022-08-07T08:18:31.270Z,94650.16
2022-08-07T08:18:36.585Z,94532.75
2022-08-07T08:20:18.508Z,94647.47
2022-08-07T08:20:50.777Z,94653.41
2022-08-07T08:22:08.103Z,94647.72
2022-08-07T08:23:30.077Z,94610.56
2022-08-07T08:25:18.885Z,94631.78
2022-08-07T08:26:40.515Z,94575.13
2022-08-07T08:27:41.566Z,94657.25
2022-08-07T08:28:55.961Z,94619.97
2022-08-07T08:29:57.626Z,94647.88
2022-08-07T08:31:02.303Z,94622.66
2022-08-07T08:32:17.987Z,94637.41
2022-08-07T08:33:19.408Z,94630.53
2022-08-07T08:34:28.964Z,94551.47
2022-08-07T08:35:39.285Z,94652.97
2022-08-07T08:36:49.284Z,94630.97
2022-08-07T08:38:04.726Z,94613.47
2022-08-07T08:39:04.242Z,94639.81
2022-08-07T08:40:12.231Z,94647.13
2022-08-07T08:41:31.389Z,94674.88
2022-08-07T08:42:52.539Z,94668.28
2022-08-07T08:44:29.639Z,94644.50
2022-08-07T08:45:59.154Z,94652.44
2022-08-07T08:47:17.327Z,94654.56
2022-08-07T08:48:41.481Z,94620.13
2022-08-07T08:50:09.339Z,94615.09
2022-08-07T08:51:49.970Z,94564.41
2022-08-07T08:53:05.314Z,94634.81
2022-08-07T08:54:20.427Z,94664.69
2022-08-07T08:55:54.609Z,94657.69
2022-08-07T08:57:02.157Z,94659.84
2022-08-07T08:58:24.734Z,94672.78
2022-08-07T08:59:42.136Z,94549.97
2022-08-07T09:00:52.825Z,94649.09
2022-08-07T09:02:38.007Z,94648.38
2022-08-07T09:04:08.671Z,94554.06
2022-08-07T09:06:00.425Z,94653.16
2022-08-07T09:07:03.567Z,94645.72
2022-08-07T09:08:31.269Z,94633.94
2022-08-07T09:09:33.320Z,94644.09
2022-08-07T09:10:46.914Z,94639.13
2022-08-07T09:12:08.977Z,94575.22
2022-08-07T09:13:36.969Z,94618.84
2022-08-07T09:14:41.607Z,94653.38
2022-08-07T09:16:22.504Z,94647.47
2022-08-07T09:17:59.606Z,94648.78
2022-08-07T09:19:52.811Z,94637.28
2022-08-07T09:21:13.978Z,94648.66
2022-08-07T09:24:32.872Z,94646.81
2022-08-07T09:24:49.117Z,94608.25
2022-08-07T09:25:56.291Z,94634.13
2022-08-07T09:27:13.616Z,94640.41
2022-08-07T09:30:05.814Z,94644.19
2022-08-07T09:30:08.783Z,94641.72
2022-08-07T09:31:23.502Z,94480.34
2022-08-07T09:32:36.440Z,94632.22
2022-08-07T09:33:57.563Z,94586.94
2022-08-07T09:36:05.014Z,94601.97
2022-08-07T09:37:06.305Z,94622.06
2022-08-07T09:38:24.485Z,94608.41
2022-08-07T09:39:54.115Z,94614.75
2022-08-07T09:41:36.308Z,94578.25
2022-08-07T09:42:57.869Z,94617.22
2022-08-07T09:44:32.694Z,94622.44
2022-08-07T09:47:23.618Z,94623.13
2022-08-07T09:48:01.733Z,94617.25
2022-08-07T09:50:00.405Z,94610.94
2022-08-07T09:50:56.051Z,94622.88
2022-08-07T09:52:16.359Z,94620.44
2022-08-07T09:53:41.323Z,94600.47
2022-08-07T09:54:54.548Z,94624.22
2022-08-07T09:56:03.885Z,94611.78
2022-08-07T09:57:19.764Z,94622.41
2022-08-07T09:58:42.246Z,94617.09
2022-08-07T10:00:14.491Z,94613.16
2022-08-07T10:01:51.881Z,94577.91
2022-08-07T10:04:03.572Z,94592.94
2022-08-07T10:04:45.997Z,94607.53
2022-08-07T10:05:59.240Z,94612.16
2022-08-07T10:07:39.912Z,94612.22
2022-08-07T10:09:15.442Z,94577.38
2022-08-07T10:11:00.303Z,94608.19
2022-08-07T10:12:19.831Z,94506.31
2022-08-07T10:14:00.243Z,94541.53
2022-08-07T10:15:15.204Z,94593.84
2022-08-07T10:16:36.987Z,94593.38
2022-08-07T10:18:13.209Z,94561.38
2022-08-07T10:19:40.521Z,94611.00
2022-08-07T10:20:50.507Z,94594.47
2022-08-07T10:22:14.343Z,94602.00
2022-08-07T10:24:06.813Z,94596.91
2022-08-07T10:25:22.648Z,94571.94
2022-08-07T10:26:27.953Z,94599.56
2022-08-07T10:28:03.333Z,94578.47
2022-08-07T10:29:31.326Z,94555.66
2022-08-07T10:30:58.586Z,94569.00
2022-08-07T10:32:51.125Z,94610.06
2022-08-07T10:34:06.652Z,94597.34
2022-08-07T10:35:16.478Z,94620.81
2022-08-07T10:36:45.604Z,94616.94
2022-08-07T10:38:09.995Z,94611.22
2022-08-07T10:40:02.565Z,94600.88
2022-08-07T10:41:46.633Z,94606.13
2022-08-07T10:43:01.896Z,94598.91
2022-08-07T10:44:19.238Z,94597.66
2022-08-07T10:45:57.205Z,94589.41
2022-08-07T10:47:03.954Z,94597.47
2022-08-07T10:48:35.447Z,94593.03
2022-08-07T10:49:45.348Z,94493.78
2022-08-07T10:50:54.346Z,94609.31
2022-08-07T10:52:13.803Z,94616.53
2022-08-07T10:53:28.110Z,94599.78
2022-08-07T10:54:53.339Z,94615.56
2022-08-07T10:56:31.666Z,94471.78
2022-08-07T10:57:43.281Z,94602.41
2022-08-07T10:59:37.256Z,94614.78
2022-08-07T11:00:50.626Z,94614.84
2022-08-07T11:02:32.833Z,94624.25
2022-08-07T11:03:52.969Z,94629.09
2022-08-07T11:05:44.942Z,94605.72
2022-08-07T11:07:15.013Z,94602.84
2022-08-07T11:08:45.801Z,94598.66
2022-08-07T11:10:06.961Z,94620.69
2022-08-07T11:11:20.118Z,94570.09
2022-08-07T11:12:32.369Z,94591.22
2022-08-07T11:14:46.354Z,94483.66
2022-08-07T11:15:31.829Z,94501.44
2022-08-07T11:17:56.836Z,94592.44
2022-08-07T11:19:21.465Z,94517.50
2022-08-07T11:20:34.319Z,94591.34
2022-08-07T11:22:05.464Z,94590.97
2022-08-07T11:23:38.422Z,94584.56
2022-08-07T11:24:45.398Z,94582.19
2022-08-07T11:26:17.562Z,94570.81
2022-08-07T11:28:00.768Z,94555.19
2022-08-07T11:29:40.646Z,94589.97
2022-08-07T11:30:41.909Z,94591.16
2022-08-07T11:32:09.480Z,94581.72
2022-08-07T11:33:17.576Z,94545.91
2022-08-07T11:34:33.584Z,94550.28
2022-08-07T11:36:10.379Z,94558.13
2022-08-07T11:37:25.766Z,94580.56
2022-08-07T11:39:23.228Z,94587.38
2022-08-07T11:40:53.409Z,94576.41
2022-08-07T11:42:31.602Z,94591.91
2022-08-07T11:43:54.374Z,94606.59
2022-08-07T11:44:59.301Z,94488.84
2022-08-07T11:46:17.186Z,94588.72
2022-08-07T11:47:39.028Z,94428.28
2022-08-07T11:49:51.494Z,94588.22
2022-08-07T11:50:34.981Z,94594.19
2022-08-07T11:51:50.576Z,94595.06
2022-08-07T11:53:25.422Z,94598.47
2022-08-07T11:54:35.763Z,94595.97
2022-08-07T11:56:10.056Z,94598.38
2022-08-07T11:57:18.859Z,94599.50
2022-08-07T11:58:33.641Z,94591.22
2022-08-07T12:00:19.320Z,94596.22
2022-08-07T12:02:00.119Z,94585.22
2022-08-07T12:03:41.349Z,94588.50
2022-08-07T12:05:08.940Z,94604.69
2022-08-07T12:06:40.288Z,94584.81
2022-08-07T12:08:04.809Z,94602.41
2022-08-07T12:09:16.831Z,94598.94
2022-08-07T12:10:27.709Z,94592.84
2022-08-07T12:11:56.109Z,94559.06
2022-08-07T12:13:11.520Z,94609.06
2022-08-07T12:14:22.022Z,94601.44
2022-08-07T12:15:35.837Z,94604.00
2022-08-07T12:16:54.951Z,94601.66
2022-08-07T12:18:14.125Z,94594.88
2022-08-07T12:19:35.951Z,94588.31
2022-08-07T12:21:00.385Z,94583.34
2022-08-07T12:22:39.260Z,94558.16
2022-08-07T12:24:07.465Z,94588.06
2022-08-07T12:26:06.271Z,94553.94
2022-08-07T12:27:17.960Z,94531.06
2022-08-07T12:28:44.864Z,94592.47
2022-08-07T12:30:03.221Z,94595.84
2022-08-07T12:31:11.797Z,94584.88
2022-08-07T12:32:22.896Z,94579.38
2022-08-07T12:33:30.846Z,94583.63
2022-08-07T12:34:53.456Z,94464.28
2022-08-07T12:35:58.056Z,94593.25
2022-08-07T12:36:58.786Z,94588.47
2022-08-07T12:38:10.871Z,94473.06
2022-08-07T12:39:43.933Z,94561.97
2022-08-07T12:40:47.581Z,94586.47
2022-08-07T12:41:50.030Z,94595.78
2022-08-07T12:42:57.196Z,94580.53
2022-08-07T12:44:04.354Z,94578.03
2022-08-07T12:45:09.184Z,94550.16
2022-08-07T12:46:34.214Z,94603.44
2022-08-07T12:47:59.468Z,94584.06
2022-08-07T12:49:25.880Z,94577.06
2022-08-07T12:50:49.095Z,94568.78
2022-08-07T12:52:13.798Z,94544.31
2022-08-07T12:53:22.227Z,94573.28
2022-08-07T12:54:38.141Z,94571.94
2022-08-07T12:56:02.287Z,94579.56
2022-08-07T12:57:09.521Z,94550.41
2022-08-07T12:58:12.925Z,94577.13
2022-08-07T12:59:22.535Z,94579.41
2022-08-07T13:00:50.176Z,94571.59
2022-08-07T13:01:50.993Z,94580.66
2022-08-07T13:03:13.058Z,94575.19
2022-08-07T13:05:01.983Z,94571.28
2022-08-07T13:06:27.798Z,94567.34
2022-08-07T13:08:14.297Z,94568.16
2022-08-07T13:09:12.651Z,94489.81
2022-08-07T13:10:38.069Z,94569.47
2022-08-07T13:12:35.327Z,94565.75
2022-08-07T13:13:46.954Z,94565.31
2022-08-07T13:15:08.194Z,94409.28
2022-08-07T13:16:25.078Z,94570.66
2022-08-07T13:17:40.031Z,94573.72
2022-08-07T13:19:01.133Z,94568.50
2022-08-07T13:20:34.989Z,94570.22
2022-08-07T13:21:57.724Z,94491.38
2022-08-07T13:23:09.834Z,94569.75
2022-08-07T13:24:43.870Z,94570.56
2022-08-07T13:26:01.639Z,94568.63
2022-08-07T13:27:05.749Z,94562.22
2022-08-07T13:28:14.250Z,94456.16
2022-08-07T13:29:27.196Z,94513.19
2022-08-07T13:30:40.861Z,94540.38
2022-08-07T13:32:32.234Z,94557.91
2022-08-07T13:34:33.385Z,94559.72
2022-08-07T13:35:59.785Z,94555.22
2022-08-07T13:37:20.082Z,94489.16
2022-08-07T13:38:47.855Z,94545.06
2022-08-07T13:40:35.199Z,94561.78
2022-08-07T13:41:35.691Z,94554.63
2022-08-07T13:42:39.673Z,94566.53
2022-08-07T13:43:43.437Z,94473.81
2022-08-07T13:44:57.660Z,94557.50
2022-08-07T13:46:23.304Z,94567.72
2022-08-07T13:48:05.998Z,94574.94
2022-08-07T13:48:58.506Z,94552.28
2022-08-07T13:50:35.520Z,94573.78
2022-08-07T13:51:28.419Z,94564.81
2022-08-07T13:52:44.611Z,94551.34
2022-08-07T13:54:00.608Z,94572.28
2022-08-07T13:55:11.044Z,94564.25
2022-08-07T13:56:10.017Z,94559.47
2022-08-07T13:57:23.802Z,94555.19
2022-08-07T13:58:56.633Z,94507.66
2022-08-07T13:59:57.623Z,94542.88
2022-08-07T14:00:58.523Z,94475.09
2022-08-07T14:02:08.621Z,94567.06
2022-08-07T14:03:09.084Z,94508.16
2022-08-07T14:04:16.844Z,94563.19
2022-08-07T14:05:23.549Z,94565.06
2022-08-07T14:06:24.766Z,94570.81
2022-08-07T14:07:31.435Z,94537.72
2022-08-07T14:08:32.435Z,94552.97